sensor_id;sensor_type;location;lat;lon;timestamp;temperature;humidity
463;DHT22;218;51.902;9.542;2024-03-29T00:01:57;24.20;1.00
463;DHT22;218;51.902;9.542;2024-03-29T00:04:23;23.80;1.00
463;DHT22;218;51.902;9.542;2024-03-29T00:06:49;24.00;1.00
463;DHT22;218;51.902;9.542;2024-03-29T00:11:43;24.20;1.00
463;DHT22;218;51.902;9.542;2024-03-29T00:14:09;24.30;1.00
463;DHT22;218;51.902;9.542;2024-03-29T00:21:27;24.20;1.00
463;DHT22;218;51.902;9.542;2024-03-29T00:26:20;24.10;1.00
463;DHT22;218;51.902;9.542;2024-03-29T00:28:47;23.50;1.00
463;DHT22;218;51.902;9.542;2024-03-29T00:33:40;24.10;1.00
463;DHT22;218;51.902;9.542;2024-03-29T00:36:06;24.00;1.00
463;DHT22;218;51.902;9.542;2024-03-29T00:38:33;24.00;1.00
463;DHT22;218;51.902;9.542;2024-03-29T00:40:59;24.70;1.00
463;DHT22;218;51.902;9.542;2024-03-29T00:43:24;24.20;1.00
463;DHT22;218;51.902;9.542;2024-03-29T00:45:52;24.00;1.00
463;DHT22;218;51.902;9.542;2024-03-29T00:50:44;23.80;1.00
463;DHT22;218;51.902;9.542;2024-03-29T00:55:36;24.10;1.00
463;DHT22;218;51.902;9.542;2024-03-29T00:58:02;24.20;1.00
463;DHT22;218;51.902;9.542;2024-03-29T01:07:50;24.50;1.00
463;DHT22;218;51.902;9.542;2024-03-29T01:10:16;24.10;1.00
463;DHT22;218;51.902;9.542;2024-03-29T01:12:42;24.50;1.00
463;DHT22;218;51.902;9.542;2024-03-29T01:17:35;24.10;1.00
463;DHT22;218;51.902;9.542;2024-03-29T01:22:28;24.20;1.00
463;DHT22;218;51.902;9.542;2024-03-29T01:24:54;24.50;1.00
463;DHT22;218;51.902;9.542;2024-03-29T01:29:47;24.20;1.00
463;DHT22;218;51.902;9.542;2024-03-29T01:34:41;23.70;1.00
463;DHT22;218;51.902;9.542;2024-03-29T01:42:01;24.10;1.00
463;DHT22;218;51.902;9.542;2024-03-29T01:44:27;24.60;1.00
463;DHT22;218;51.902;9.542;2024-03-29T01:46:54;24.10;1.00
463;DHT22;218;51.902;9.542;2024-03-29T01:49:21;24.00;1.00
463;DHT22;218;51.902;9.542;2024-03-29T01:51:48;24.00;1.00
463;DHT22;218;51.902;9.542;2024-03-29T01:59:14;24.00;1.00
463;DHT22;218;51.902;9.542;2024-03-29T02:01:42;24.20;1.00
463;DHT22;218;51.902;9.542;2024-03-29T02:04:09;23.90;1.00
463;DHT22;218;51.902;9.542;2024-03-29T02:06:38;24.00;1.00
463;DHT22;218;51.902;9.542;2024-03-29T02:11:34;24.20;1.00
463;DHT22;218;51.902;9.542;2024-03-29T02:14:01;24.00;1.00
463;DHT22;218;51.902;9.542;2024-03-29T02:16:28;24.00;1.00
463;DHT22;218;51.902;9.542;2024-03-29T02:21:22;24.00;1.00
463;DHT22;218;51.902;9.542;2024-03-29T02:23:59;23.90;1.00
463;DHT22;218;51.902;9.542;2024-03-29T02:26:26;24.00;1.00
463;DHT22;218;51.902;9.542;2024-03-29T02:28:57;24.00;1.00
463;DHT22;218;51.902;9.542;2024-03-29T02:31:24;24.20;1.00
463;DHT22;218;51.902;9.542;2024-03-29T02:36:18;24.10;1.00
463;DHT22;218;51.902;9.542;2024-03-29T02:43:41;24.10;1.00
463;DHT22;218;51.902;9.542;2024-03-29T02:46:08;24.10;1.00
463;DHT22;218;51.902;9.542;2024-03-29T02:48:35;24.10;1.00
463;DHT22;218;51.902;9.542;2024-03-29T02:51:01;24.00;1.00
463;DHT22;218;51.902;9.542;2024-03-29T02:55:54;23.80;1.00
463;DHT22;218;51.902;9.542;2024-03-29T03:00:49;24.10;1.00
463;DHT22;218;51.902;9.542;2024-03-29T03:05:42;23.90;1.00
463;DHT22;218;51.902;9.542;2024-03-29T03:13:28;24.30;1.00
463;DHT22;218;51.902;9.542;2024-03-29T03:15:56;23.80;1.00
463;DHT22;218;51.902;9.542;2024-03-29T03:18:22;24.00;1.00
463;DHT22;218;51.902;9.542;2024-03-29T03:25:53;23.90;1.00
463;DHT22;218;51.902;9.542;2024-03-29T03:30:48;24.10;1.00
463;DHT22;218;51.902;9.542;2024-03-29T03:40:35;23.90;1.00
463;DHT22;218;51.902;9.542;2024-03-29T03:43:01;24.00;1.00
463;DHT22;218;51.902;9.542;2024-03-29T03:45:28;23.90;1.00
463;DHT22;218;51.902;9.542;2024-03-29T03:47:56;23.90;1.00
463;DHT22;218;51.902;9.542;2024-03-29T03:52:49;23.80;1.00
463;DHT22;218;51.902;9.542;2024-03-29T03:55:16;23.80;1.00
463;DHT22;218;51.902;9.542;2024-03-29T03:57:42;23.80;1.00
463;DHT22;218;51.902;9.542;2024-03-29T04:02:36;24.30;1.00
463;DHT22;218;51.902;9.542;2024-03-29T04:05:06;24.00;1.00
463;DHT22;218;51.902;9.542;2024-03-29T04:09:59;23.90;1.00
463;DHT22;218;51.902;9.542;2024-03-29T04:12:27;24.20;1.00
463;DHT22;218;51.902;9.542;2024-03-29T04:17:22;23.90;1.00
463;DHT22;218;51.902;9.542;2024-03-29T04:22:17;24.00;1.00
463;DHT22;218;51.902;9.542;2024-03-29T04:27:10;24.10;1.00
463;DHT22;218;51.902;9.542;2024-03-29T04:29:36;24.20;1.00
463;DHT22;218;51.902;9.542;2024-03-29T04:34:29;24.10;1.00
463;DHT22;218;51.902;9.542;2024-03-29T04:36:56;23.90;1.00
463;DHT22;218;51.902;9.542;2024-03-29T04:39:25;24.00;1.00
463;DHT22;218;51.902;9.542;2024-03-29T04:41:51;24.00;1.00
463;DHT22;218;51.902;9.542;2024-03-29T04:44:24;24.00;1.00
463;DHT22;218;51.902;9.542;2024-03-29T04:46:51;24.10;1.00
463;DHT22;218;51.902;9.542;2024-03-29T04:49:21;24.00;1.00
463;DHT22;218;51.902;9.542;2024-03-29T04:51:53;23.90;1.00
463;DHT22;218;51.902;9.542;2024-03-29T04:56:49;23.70;1.00
463;DHT22;218;51.902;9.542;2024-03-29T04:59:16;24.10;1.00
463;DHT22;218;51.902;9.542;2024-03-29T05:01:43;23.90;1.00
463;DHT22;218;51.902;9.542;2024-03-29T05:04:12;23.90;1.00
463;DHT22;218;51.902;9.542;2024-03-29T05:09:09;24.00;1.00
463;DHT22;218;51.902;9.542;2024-03-29T05:11:37;23.90;1.00
463;DHT22;218;51.902;9.542;2024-03-29T05:14:06;23.80;1.00
463;DHT22;218;51.902;9.542;2024-03-29T05:19:00;23.90;1.00
463;DHT22;218;51.902;9.542;2024-03-29T05:21:27;23.80;1.00
463;DHT22;218;51.902;9.542;2024-03-29T05:26:21;24.20;1.00
463;DHT22;218;51.902;9.542;2024-03-29T05:28:48;24.10;1.00
463;DHT22;218;51.902;9.542;2024-03-29T05:31:16;23.70;1.00
463;DHT22;218;51.902;9.542;2024-03-29T05:36:11;23.70;1.00
463;DHT22;218;51.902;9.542;2024-03-29T05:41:06;23.70;1.00
463;DHT22;218;51.902;9.542;2024-03-29T05:43:33;23.80;1.00
463;DHT22;218;51.902;9.542;2024-03-29T05:46:00;23.60;1.00
463;DHT22;218;51.902;9.542;2024-03-29T05:48:29;23.60;1.00
463;DHT22;218;51.902;9.542;2024-03-29T05:50:56;23.50;1.00
463;DHT22;218;51.902;9.542;2024-03-29T05:53:23;23.60;1.00
463;DHT22;218;51.902;9.542;2024-03-29T05:55:50;23.50;1.00
463;DHT22;218;51.902;9.542;2024-03-29T05:58:17;23.50;1.00
463;DHT22;218;51.902;9.542;2024-03-29T06:03:13;23.60;1.00
463;DHT22;218;51.902;9.542;2024-03-29T06:05:42;23.60;1.00
463;DHT22;218;51.902;9.542;2024-03-29T06:08:09;23.60;1.00
463;DHT22;218;51.902;9.542;2024-03-29T06:10:36;23.50;1.00
463;DHT22;218;51.902;9.542;2024-03-29T06:13:03;23.40;1.00
463;DHT22;218;51.902;9.542;2024-03-29T06:15:35;23.70;1.00
463;DHT22;218;51.902;9.542;2024-03-29T06:18:20;23.60;1.00
463;DHT22;218;51.902;9.542;2024-03-29T06:20:49;23.40;1.00
463;DHT22;218;51.902;9.542;2024-03-29T06:23:16;23.50;1.00
463;DHT22;218;51.902;9.542;2024-03-29T06:30:41;23.50;1.00
463;DHT22;218;51.902;9.542;2024-03-29T06:33:08;23.80;1.00
463;DHT22;218;51.902;9.542;2024-03-29T06:35:35;23.50;1.00
463;DHT22;218;51.902;9.542;2024-03-29T06:38:04;23.20;1.00
463;DHT22;218;51.902;9.542;2024-03-29T06:40:31;23.80;1.00
463;DHT22;218;51.902;9.542;2024-03-29T06:42:58;23.70;1.00
463;DHT22;218;51.902;9.542;2024-03-29T06:47:55;23.70;1.00
463;DHT22;218;51.902;9.542;2024-03-29T06:50:21;23.60;1.00
463;DHT22;218;51.902;9.542;2024-03-29T06:52:48;23.70;1.00
463;DHT22;218;51.902;9.542;2024-03-29T06:55:16;23.50;1.00
463;DHT22;218;51.902;9.542;2024-03-29T06:57:43;23.60;1.00
463;DHT22;218;51.902;9.542;2024-03-29T07:00:12;23.40;1.00
463;DHT22;218;51.902;9.542;2024-03-29T07:02:39;23.80;1.00
463;DHT22;218;51.902;9.542;2024-03-29T07:05:07;23.30;1.00
463;DHT22;218;51.902;9.542;2024-03-29T07:07:36;23.20;1.00
463;DHT22;218;51.902;9.542;2024-03-29T07:10:06;23.50;1.00
463;DHT22;218;51.902;9.542;2024-03-29T07:12:34;22.90;1.00
463;DHT22;218;51.902;9.542;2024-03-29T07:15:01;23.20;1.00
463;DHT22;218;51.902;9.542;2024-03-29T07:19:56;23.20;1.00
463;DHT22;218;51.902;9.542;2024-03-29T07:22:23;23.30;1.00
463;DHT22;218;51.902;9.542;2024-03-29T07:27:17;23.10;1.00
463;DHT22;218;51.902;9.542;2024-03-29T07:29:47;23.30;1.00
463;DHT22;218;51.902;9.542;2024-03-29T07:32:14;23.20;1.00
463;DHT22;218;51.902;9.542;2024-03-29T07:34:41;23.30;1.00
463;DHT22;218;51.902;9.542;2024-03-29T07:37:08;23.20;1.00
463;DHT22;218;51.902;9.542;2024-03-29T07:39:40;23.20;1.00
463;DHT22;218;51.902;9.542;2024-03-29T07:47:04;23.10;1.00
463;DHT22;218;51.902;9.542;2024-03-29T07:49:31;23.10;1.00
463;DHT22;218;51.902;9.542;2024-03-29T07:51:58;22.70;1.00
463;DHT22;218;51.902;9.542;2024-03-29T07:54:27;23.00;1.00
463;DHT22;218;51.902;9.542;2024-03-29T07:56:54;23.00;1.00
463;DHT22;218;51.902;9.542;2024-03-29T07:59:21;23.10;1.00
463;DHT22;218;51.902;9.542;2024-03-29T08:01:48;22.90;1.00
463;DHT22;218;51.902;9.542;2024-03-29T08:06:44;22.90;1.00
463;DHT22;218;51.902;9.542;2024-03-29T08:11:39;22.90;1.00
463;DHT22;218;51.902;9.542;2024-03-29T08:14:07;23.00;1.00
463;DHT22;218;51.902;9.542;2024-03-29T08:21:30;22.80;1.00
463;DHT22;218;51.902;9.542;2024-03-29T08:23:57;22.60;1.00
463;DHT22;218;51.902;9.542;2024-03-29T08:28:51;22.90;1.00
463;DHT22;218;51.902;9.542;2024-03-29T08:31:18;22.90;1.00
463;DHT22;218;51.902;9.542;2024-03-29T08:36:13;22.40;1.00
463;DHT22;218;51.902;9.542;2024-03-29T08:38:42;23.00;1.00
463;DHT22;218;51.902;9.542;2024-03-29T08:41:11;23.10;1.00
463;DHT22;218;51.902;9.542;2024-03-29T08:46:05;22.50;1.00
463;DHT22;218;51.902;9.542;2024-03-29T08:48:35;22.40;1.00
463;DHT22;218;51.902;9.542;2024-03-29T08:51:05;22.50;1.00
463;DHT22;218;51.902;9.542;2024-03-29T08:56:01;22.60;1.00
463;DHT22;218;51.902;9.542;2024-03-29T09:03:23;22.40;1.00
463;DHT22;218;51.902;9.542;2024-03-29T09:05:51;22.90;1.00
463;DHT22;218;51.902;9.542;2024-03-29T09:08:18;22.70;1.00
463;DHT22;218;51.902;9.542;2024-03-29T09:10:47;22.70;1.00
463;DHT22;218;51.902;9.542;2024-03-29T09:13:15;22.80;1.00
463;DHT22;218;51.902;9.542;2024-03-29T09:15:44;22.40;1.00
463;DHT22;218;51.902;9.542;2024-03-29T09:18:11;22.70;1.00
463;DHT22;218;51.902;9.542;2024-03-29T09:20:43;22.60;1.00
463;DHT22;218;51.902;9.542;2024-03-29T09:23:10;22.60;1.00
463;DHT22;218;51.902;9.542;2024-03-29T09:25:41;22.60;1.00
463;DHT22;218;51.902;9.542;2024-03-29T09:33:04;22.60;1.00
463;DHT22;218;51.902;9.542;2024-03-29T09:35:32;22.90;1.00
463;DHT22;218;51.902;9.542;2024-03-29T09:38:01;22.30;1.00
463;DHT22;218;51.902;9.542;2024-03-29T09:40:29;22.50;1.00
463;DHT22;218;51.902;9.542;2024-03-29T09:42:57;22.40;1.00
463;DHT22;218;51.902;9.542;2024-03-29T09:48:01;22.20;1.00
463;DHT22;218;51.902;9.542;2024-03-29T09:50:28;22.90;1.00
463;DHT22;218;51.902;9.542;2024-03-29T09:52:56;22.30;1.00
463;DHT22;218;51.902;9.542;2024-03-29T10:00:19;22.50;1.00
463;DHT22;218;51.902;9.542;2024-03-29T10:10:12;22.50;1.00
463;DHT22;218;51.902;9.542;2024-03-29T10:12:39;22.30;1.00
463;DHT22;218;51.902;9.542;2024-03-29T10:15:07;22.50;1.00
463;DHT22;218;51.902;9.542;2024-03-29T10:17:39;22.70;1.00
463;DHT22;218;51.902;9.542;2024-03-29T10:20:07;22.50;1.00
463;DHT22;218;51.902;9.542;2024-03-29T10:22:40;22.40;1.00
463;DHT22;218;51.902;9.542;2024-03-29T10:30:05;22.70;1.00
463;DHT22;218;51.902;9.542;2024-03-29T10:32:34;22.60;1.00
463;DHT22;218;51.902;9.542;2024-03-29T10:37:29;23.00;1.00
463;DHT22;218;51.902;9.542;2024-03-29T10:40:00;22.40;1.00
463;DHT22;218;51.902;9.542;2024-03-29T10:52:21;22.60;1.00
463;DHT22;218;51.902;9.542;2024-03-29T10:54:48;22.60;1.00
463;DHT22;218;51.902;9.542;2024-03-29T10:59:52;23.10;1.00
463;DHT22;218;51.902;9.542;2024-03-29T11:02:31;22.80;1.00
463;DHT22;218;51.902;9.542;2024-03-29T11:05:02;22.90;1.00
463;DHT22;218;51.902;9.542;2024-03-29T11:07:34;22.90;1.00
463;DHT22;218;51.902;9.542;2024-03-29T11:10:04;22.90;1.00
463;DHT22;218;51.902;9.542;2024-03-29T11:12:54;23.00;1.00
463;DHT22;218;51.902;9.542;2024-03-29T11:15:29;23.00;1.00
463;DHT22;218;51.902;9.542;2024-03-29T11:17:57;23.10;1.00
463;DHT22;218;51.902;9.542;2024-03-29T11:20:25;23.00;1.00
463;DHT22;218;51.902;9.542;2024-03-29T11:25:38;23.30;1.00
463;DHT22;218;51.902;9.542;2024-03-29T11:33:28;23.20;1.00
463;DHT22;218;51.902;9.542;2024-03-29T11:35:56;23.40;1.00
463;DHT22;218;51.902;9.542;2024-03-29T11:41:03;23.40;1.00
463;DHT22;218;51.902;9.542;2024-03-29T11:43:33;23.40;1.00
463;DHT22;218;51.902;9.542;2024-03-29T11:48:29;23.40;1.00
463;DHT22;218;51.902;9.542;2024-03-29T11:53:25;23.40;1.00
463;DHT22;218;51.902;9.542;2024-03-29T11:55:53;23.30;1.00
463;DHT22;218;51.902;9.542;2024-03-29T12:00:52;23.30;1.00
463;DHT22;218;51.902;9.542;2024-03-29T12:03:20;23.30;1.00
463;DHT22;218;51.902;9.542;2024-03-29T12:05:48;23.30;1.00
463;DHT22;218;51.902;9.542;2024-03-29T12:08:16;23.40;1.00
463;DHT22;218;51.902;9.542;2024-03-29T12:10:44;23.50;1.00
463;DHT22;218;51.902;9.542;2024-03-29T12:13:11;23.30;1.00
463;DHT22;218;51.902;9.542;2024-03-29T12:18:09;23.30;1.00
463;DHT22;218;51.902;9.542;2024-03-29T12:23:06;23.40;1.00
463;DHT22;218;51.902;9.542;2024-03-29T12:25:35;23.30;1.00
463;DHT22;218;51.902;9.542;2024-03-29T12:30:29;23.30;1.00
463;DHT22;218;51.902;9.542;2024-03-29T12:33:03;23.30;1.00
463;DHT22;218;51.902;9.542;2024-03-29T12:35:33;23.30;1.00
463;DHT22;218;51.902;9.542;2024-03-29T12:40:31;23.30;1.00
463;DHT22;218;51.902;9.542;2024-03-29T12:43:04;23.20;1.00
463;DHT22;218;51.902;9.542;2024-03-29T12:45:31;23.20;1.00
463;DHT22;218;51.902;9.542;2024-03-29T12:47:59;23.50;1.00
463;DHT22;218;51.902;9.542;2024-03-29T12:52:56;23.10;1.00
463;DHT22;218;51.902;9.542;2024-03-29T12:55:24;23.40;1.00
463;DHT22;218;51.902;9.542;2024-03-29T12:57:54;23.60;1.00
463;DHT22;218;51.902;9.542;2024-03-29T13:00:21;23.30;1.00
463;DHT22;218;51.902;9.542;2024-03-29T13:02:48;23.70;1.00
463;DHT22;218;51.902;9.542;2024-03-29T13:05:16;23.40;1.00
463;DHT22;218;51.902;9.542;2024-03-29T13:07:43;23.50;1.00
463;DHT22;218;51.902;9.542;2024-03-29T13:10:12;23.30;1.00
463;DHT22;218;51.902;9.542;2024-03-29T13:12:40;23.30;1.00
463;DHT22;218;51.902;9.542;2024-03-29T13:15:17;23.30;1.00
463;DHT22;218;51.902;9.542;2024-03-29T13:17:45;23.60;1.00
463;DHT22;218;51.902;9.542;2024-03-29T13:22:41;23.40;1.00
463;DHT22;218;51.902;9.542;2024-03-29T13:25:09;23.30;1.00
463;DHT22;218;51.902;9.542;2024-03-29T13:27:38;23.30;1.00
463;DHT22;218;51.902;9.542;2024-03-29T13:30:07;23.30;1.00
463;DHT22;218;51.902;9.542;2024-03-29T13:32:35;24.10;1.00
463;DHT22;218;51.902;9.542;2024-03-29T13:35:03;23.30;1.00
463;DHT22;218;51.902;9.542;2024-03-29T13:37:31;23.60;1.00
463;DHT22;218;51.902;9.542;2024-03-29T13:39:58;23.40;1.00
463;DHT22;218;51.902;9.542;2024-03-29T13:42:25;23.30;1.00
463;DHT22;218;51.902;9.542;2024-03-29T13:44:54;23.00;1.00
463;DHT22;218;51.902;9.542;2024-03-29T13:47:21;23.40;1.00
463;DHT22;218;51.902;9.542;2024-03-29T13:49:48;23.40;1.00
463;DHT22;218;51.902;9.542;2024-03-29T13:54:46;23.30;1.00
463;DHT22;218;51.902;9.542;2024-03-29T13:57:13;23.60;1.00
463;DHT22;218;51.902;9.542;2024-03-29T13:59:40;23.70;1.00
463;DHT22;218;51.902;9.542;2024-03-29T14:02:12;23.30;1.00
463;DHT22;218;51.902;9.542;2024-03-29T14:07:07;23.60;1.00
463;DHT22;218;51.902;9.542;2024-03-29T14:12:03;23.50;1.00
463;DHT22;218;51.902;9.542;2024-03-29T14:14:30;23.40;1.00
463;DHT22;218;51.902;9.542;2024-03-29T14:16:58;23.60;1.00
463;DHT22;218;51.902;9.542;2024-03-29T14:19:31;23.50;1.00
463;DHT22;218;51.902;9.542;2024-03-29T14:21:59;23.50;1.00
463;DHT22;218;51.902;9.542;2024-03-29T14:24:26;24.00;1.00
463;DHT22;218;51.902;9.542;2024-03-29T14:26:56;23.40;1.00
463;DHT22;218;51.902;9.542;2024-03-29T14:29:24;23.30;1.00
463;DHT22;218;51.902;9.542;2024-03-29T14:31:51;23.30;1.00
463;DHT22;218;51.902;9.542;2024-03-29T14:34:20;23.50;1.00
463;DHT22;218;51.902;9.542;2024-03-29T14:36:50;23.60;1.00
463;DHT22;218;51.902;9.542;2024-03-29T14:39:17;23.20;1.00
463;DHT22;218;51.902;9.542;2024-03-29T14:41:46;23.50;1.00
463;DHT22;218;51.902;9.542;2024-03-29T14:46:43;23.50;1.00
463;DHT22;218;51.902;9.542;2024-03-29T14:49:10;23.60;1.00
463;DHT22;218;51.902;9.542;2024-03-29T14:51:39;24.00;1.00
463;DHT22;218;51.902;9.542;2024-03-29T14:54:08;23.70;1.00
463;DHT22;218;51.902;9.542;2024-03-29T14:56:36;23.70;1.00
463;DHT22;218;51.902;9.542;2024-03-29T14:59:04;23.60;1.00
463;DHT22;218;51.902;9.542;2024-03-29T15:01:32;23.80;1.00
463;DHT22;218;51.902;9.542;2024-03-29T15:03:59;23.80;1.00
463;DHT22;218;51.902;9.542;2024-03-29T15:06:27;23.80;1.00
463;DHT22;218;51.902;9.542;2024-03-29T15:08:55;23.70;1.00
463;DHT22;218;51.902;9.542;2024-03-29T15:11:24;23.70;1.00
463;DHT22;218;51.902;9.542;2024-03-29T15:13:52;23.70;1.00
463;DHT22;218;51.902;9.542;2024-03-29T15:16:19;23.80;1.00
463;DHT22;218;51.902;9.542;2024-03-29T15:21:14;23.70;1.00
463;DHT22;218;51.902;9.542;2024-03-29T15:23:43;23.70;1.00
463;DHT22;218;51.902;9.542;2024-03-29T15:26:10;24.00;1.00
463;DHT22;218;51.902;9.542;2024-03-29T15:28:38;24.00;1.00
463;DHT22;218;51.902;9.542;2024-03-29T15:33:52;23.80;1.00
463;DHT22;218;51.902;9.542;2024-03-29T15:36:20;23.80;1.00
463;DHT22;218;51.902;9.542;2024-03-29T15:38:48;23.70;1.00
463;DHT22;218;51.902;9.542;2024-03-29T15:41:16;23.80;1.00
463;DHT22;218;51.902;9.542;2024-03-29T15:43:44;23.80;1.00
463;DHT22;218;51.902;9.542;2024-03-29T15:46:12;24.00;1.00
463;DHT22;218;51.902;9.542;2024-03-29T15:48:39;23.70;1.00
463;DHT22;218;51.902;9.542;2024-03-29T15:51:06;23.90;1.00
463;DHT22;218;51.902;9.542;2024-03-29T15:53:36;23.70;1.00
463;DHT22;218;51.902;9.542;2024-03-29T15:56:04;23.80;1.00
463;DHT22;218;51.902;9.542;2024-03-29T15:58:34;23.90;1.00
463;DHT22;218;51.902;9.542;2024-03-29T16:01:04;23.90;1.00
463;DHT22;218;51.902;9.542;2024-03-29T16:03:31;23.70;1.00
463;DHT22;218;51.902;9.542;2024-03-29T16:05:58;23.70;1.00
463;DHT22;218;51.902;9.542;2024-03-29T16:08:25;24.00;1.00
463;DHT22;218;51.902;9.542;2024-03-29T16:10:54;23.80;1.00
463;DHT22;218;51.902;9.542;2024-03-29T16:13:21;23.90;1.00
463;DHT22;218;51.902;9.542;2024-03-29T16:15:48;23.90;1.00
463;DHT22;218;51.902;9.542;2024-03-29T16:18:17;23.90;1.00
463;DHT22;218;51.902;9.542;2024-03-29T16:20:43;24.00;1.00
463;DHT22;218;51.902;9.542;2024-03-29T16:23:11;23.90;1.00
463;DHT22;218;51.902;9.542;2024-03-29T16:25:37;23.80;1.00
463;DHT22;218;51.902;9.542;2024-03-29T16:28:06;23.90;1.00
463;DHT22;218;51.902;9.542;2024-03-29T16:30:33;23.90;1.00
463;DHT22;218;51.902;9.542;2024-03-29T16:33:00;23.80;1.00
463;DHT22;218;51.902;9.542;2024-03-29T16:35:28;23.90;1.00
463;DHT22;218;51.902;9.542;2024-03-29T16:37:54;23.90;1.00
463;DHT22;218;51.902;9.542;2024-03-29T16:40:21;23.90;1.00
463;DHT22;218;51.902;9.542;2024-03-29T16:42:48;23.90;1.00
463;DHT22;218;51.902;9.542;2024-03-29T16:45:14;24.00;1.00
463;DHT22;218;51.902;9.542;2024-03-29T16:47:41;23.90;1.00
463;DHT22;218;51.902;9.542;2024-03-29T16:50:08;23.80;1.00
463;DHT22;218;51.902;9.542;2024-03-29T16:55:03;23.80;1.00
463;DHT22;218;51.902;9.542;2024-03-29T16:57:31;23.90;1.00
463;DHT22;218;51.902;9.542;2024-03-29T16:59:59;23.90;1.00
463;DHT22;218;51.902;9.542;2024-03-29T17:02:26;23.90;1.00
463;DHT22;218;51.902;9.542;2024-03-29T17:04:52;23.90;1.00
463;DHT22;218;51.902;9.542;2024-03-29T17:07:19;23.80;1.00
463;DHT22;218;51.902;9.542;2024-03-29T17:09:46;23.90;1.00
463;DHT22;218;51.902;9.542;2024-03-29T17:12:13;23.90;1.00
463;DHT22;218;51.902;9.542;2024-03-29T17:14:40;24.00;1.00
463;DHT22;218;51.902;9.542;2024-03-29T17:17:07;23.90;1.00
463;DHT22;218;51.902;9.542;2024-03-29T17:19:34;23.90;1.00
463;DHT22;218;51.902;9.542;2024-03-29T17:22:02;23.90;1.00
463;DHT22;218;51.902;9.542;2024-03-29T17:24:28;23.70;1.00
463;DHT22;218;51.902;9.542;2024-03-29T17:26:59;23.90;1.00
463;DHT22;218;51.902;9.542;2024-03-29T17:29:25;23.80;1.00
463;DHT22;218;51.902;9.542;2024-03-29T17:31:52;23.80;1.00
463;DHT22;218;51.902;9.542;2024-03-29T17:34:19;23.80;1.00
463;DHT22;218;51.902;9.542;2024-03-29T17:36:48;24.00;1.00
463;DHT22;218;51.902;9.542;2024-03-29T17:39:14;24.10;1.00
463;DHT22;218;51.902;9.542;2024-03-29T17:41:42;24.10;1.00
463;DHT22;218;51.902;9.542;2024-03-29T17:44:10;24.00;1.00
463;DHT22;218;51.902;9.542;2024-03-29T17:46:39;24.00;1.00
463;DHT22;218;51.902;9.542;2024-03-29T17:49:05;24.00;1.00
463;DHT22;218;51.902;9.542;2024-03-29T17:51:34;24.00;1.00
463;DHT22;218;51.902;9.542;2024-03-29T17:54:00;24.00;1.00
463;DHT22;218;51.902;9.542;2024-03-29T17:56:27;24.00;1.00
463;DHT22;218;51.902;9.542;2024-03-29T18:10:23;23.80;1.00
463;DHT22;218;51.902;9.542;2024-03-29T18:12:50;23.90;1.00
463;DHT22;218;51.902;9.542;2024-03-29T18:15:16;23.90;1.00
463;DHT22;218;51.902;9.542;2024-03-29T18:17:43;23.70;1.00
463;DHT22;218;51.902;9.542;2024-03-29T18:20:12;23.90;1.00
463;DHT22;218;51.902;9.542;2024-03-29T18:22:38;24.00;1.00
463;DHT22;218;51.902;9.542;2024-03-29T18:25:05;24.00;1.00
463;DHT22;218;51.902;9.542;2024-03-29T18:29:59;23.90;1.00
463;DHT22;218;51.902;9.542;2024-03-29T18:32:26;23.90;1.00
463;DHT22;218;51.902;9.542;2024-03-29T18:34:52;24.00;1.00
463;DHT22;218;51.902;9.542;2024-03-29T18:37:21;24.00;1.00
463;DHT22;218;51.902;9.542;2024-03-29T18:39:47;24.00;1.00
463;DHT22;218;51.902;9.542;2024-03-29T18:42:14;24.00;1.00
463;DHT22;218;51.902;9.542;2024-03-29T18:44:40;23.90;1.00
463;DHT22;218;51.902;9.542;2024-03-29T18:47:07;23.90;1.00
463;DHT22;218;51.902;9.542;2024-03-29T18:49:33;23.90;1.00
463;DHT22;218;51.902;9.542;2024-03-29T18:52:00;23.90;1.00
463;DHT22;218;51.902;9.542;2024-03-29T18:54:29;23.80;1.00
463;DHT22;218;51.902;9.542;2024-03-29T18:56:56;23.90;1.00
463;DHT22;218;51.902;9.542;2024-03-29T18:59:26;23.80;1.00
463;DHT22;218;51.902;9.542;2024-03-29T19:01:53;23.90;1.00
463;DHT22;218;51.902;9.542;2024-03-29T19:04:20;24.00;1.00
463;DHT22;218;51.902;9.542;2024-03-29T19:06:49;23.90;1.00
463;DHT22;218;51.902;9.542;2024-03-29T19:09:17;24.00;1.00
463;DHT22;218;51.902;9.542;2024-03-29T19:11:45;24.00;1.00
463;DHT22;218;51.902;9.542;2024-03-29T19:14:17;23.90;1.00
463;DHT22;218;51.902;9.542;2024-03-29T19:16:43;23.90;1.00
463;DHT22;218;51.902;9.542;2024-03-29T19:19:10;23.90;1.00
463;DHT22;218;51.902;9.542;2024-03-29T19:21:36;23.90;1.00
463;DHT22;218;51.902;9.542;2024-03-29T19:24:07;24.00;1.00
463;DHT22;218;51.902;9.542;2024-03-29T19:26:33;23.80;1.00
463;DHT22;218;51.902;9.542;2024-03-29T19:29:01;23.90;1.00
463;DHT22;218;51.902;9.542;2024-03-29T19:31:28;23.80;1.00
463;DHT22;218;51.902;9.542;2024-03-29T19:33:55;23.80;1.00
463;DHT22;218;51.902;9.542;2024-03-29T19:36:21;24.00;1.00
463;DHT22;218;51.902;9.542;2024-03-29T19:38:48;23.80;1.00
463;DHT22;218;51.902;9.542;2024-03-29T19:41:13;23.70;1.00
463;DHT22;218;51.902;9.542;2024-03-29T19:43:40;23.90;1.00
463;DHT22;218;51.902;9.542;2024-03-29T19:46:08;23.90;1.00
463;DHT22;218;51.902;9.542;2024-03-29T19:48:35;23.80;1.00
463;DHT22;218;51.902;9.542;2024-03-29T19:51:01;23.80;1.00
463;DHT22;218;51.902;9.542;2024-03-29T19:53:28;23.90;1.00
463;DHT22;218;51.902;9.542;2024-03-29T19:55:54;23.90;1.00
463;DHT22;218;51.902;9.542;2024-03-29T19:58:21;23.80;1.00
463;DHT22;218;51.902;9.542;2024-03-29T20:00:49;23.80;1.00
463;DHT22;218;51.902;9.542;2024-03-29T20:03:17;23.90;1.00
463;DHT22;218;51.902;9.542;2024-03-29T20:05:43;23.80;1.00
463;DHT22;218;51.902;9.542;2024-03-29T20:08:10;23.80;1.00
463;DHT22;218;51.902;9.542;2024-03-29T20:10:37;23.90;1.00
463;DHT22;218;51.902;9.542;2024-03-29T20:13:05;23.90;1.00
463;DHT22;218;51.902;9.542;2024-03-29T20:15:35;23.80;1.00
463;DHT22;218;51.902;9.542;2024-03-29T20:18:03;23.80;1.00
463;DHT22;218;51.902;9.542;2024-03-29T20:20:31;23.90;1.00
463;DHT22;218;51.902;9.542;2024-03-29T20:22:58;23.80;1.00
463;DHT22;218;51.902;9.542;2024-03-29T20:25:24;23.90;1.00
463;DHT22;218;51.902;9.542;2024-03-29T20:30:18;23.90;1.00
463;DHT22;218;51.902;9.542;2024-03-29T20:32:45;23.90;1.00
463;DHT22;218;51.902;9.542;2024-03-29T20:35:11;23.90;1.00
463;DHT22;218;51.902;9.542;2024-03-29T20:37:40;23.80;1.00
463;DHT22;218;51.902;9.542;2024-03-29T20:40:08;23.80;1.00
463;DHT22;218;51.902;9.542;2024-03-29T20:42:35;23.90;1.00
463;DHT22;218;51.902;9.542;2024-03-29T20:45:02;23.90;1.00
463;DHT22;218;51.902;9.542;2024-03-29T20:47:32;23.80;1.00
463;DHT22;218;51.902;9.542;2024-03-29T20:49:58;23.80;1.00
463;DHT22;218;51.902;9.542;2024-03-29T20:52:25;23.80;1.00
463;DHT22;218;51.902;9.542;2024-03-29T20:54:53;23.80;1.00
463;DHT22;218;51.902;9.542;2024-03-29T20:57:20;23.80;1.00
463;DHT22;218;51.902;9.542;2024-03-29T21:02:14;23.80;1.00
463;DHT22;218;51.902;9.542;2024-03-29T21:04:58;23.90;1.00
463;DHT22;218;51.902;9.542;2024-03-29T21:07:42;23.80;1.00
463;DHT22;218;51.902;9.542;2024-03-29T21:10:13;23.80;1.00
463;DHT22;218;51.902;9.542;2024-03-29T21:12:40;23.90;1.00
463;DHT22;218;51.902;9.542;2024-03-29T21:15:09;23.80;1.00
463;DHT22;218;51.902;9.542;2024-03-29T21:17:36;23.80;1.00
463;DHT22;218;51.902;9.542;2024-03-29T21:22:31;23.80;1.00
463;DHT22;218;51.902;9.542;2024-03-29T21:24:57;23.90;1.00
463;DHT22;218;51.902;9.542;2024-03-29T21:27:25;23.90;1.00